Time;durP1;ratioP1;P1;durP2;ratioP2;P2;SDS_P1;SDS_P2;PMS_P1;PMS_P2;Temp;Humidity;BMP_temperature;BMP_pressure;BME280_temperature;BME280_humidity;BME280_pressure;Samples;Min_cycle;Max_cycle;Signal;HPM_P1;HPM_P2
2023/01/25 00:01:51;;;;;;;70.95;51.63;;;;;;;-0.60;100.00;103567.56;5053286;28;20464;-84
2023/01/25 00:04:18;;;;;;;71.32;50.80;;;;;;;-0.61;100.00;103569.25;5053079;28;20035;-82
2023/01/25 00:06:43;;;;;;;75.80;52.40;;;;;;;-0.60;100.00;103560.66;5053268;28;20383;-76
2023/01/25 00:09:09;;;;;;;73.60;51.33;;;;;;;-0.58;100.00;103560.84;5053081;28;20107;-82
2023/01/25 00:11:36;;;;;;;75.07;52.35;;;;;;;-0.61;100.00;103561.44;5052950;28;20438;-82
2023/01/25 00:14:03;;;;;;;74.85;51.47;;;;;;;-0.62;100.00;103558.72;5052868;28;20039;-84
2023/01/25 00:16:28;;;;;;;77.28;52.38;;;;;;;-0.58;100.00;103553.03;5053056;28;20400;-76
2023/01/25 00:18:54;;;;;;;78.85;53.25;;;;;;;-0.55;100.00;103551.63;5052851;28;20025;-73
2023/01/25 00:21:21;;;;;;;76.05;52.05;;;;;;;-0.53;100.00;103559.56;5052669;28;20071;-73
2023/01/25 00:23:47;;;;;;;74.35;51.58;;;;;;;-0.55;100.00;103550.72;5052911;28;20035;-74
2023/01/25 00:26:12;;;;;;;71.70;50.10;;;;;;;-0.58;100.00;103556.53;5052570;28;20124;-73
2023/01/25 00:28:38;;;;;;;76.93;52.17;;;;;;;-0.61;100.00;103553.66;5052456;28;20113;-73
2023/01/25 00:31:06;;;;;;;78.80;52.75;;;;;;;-0.65;100.00;103553.22;5052795;28;20032;-73
2023/01/25 00:33:39;;;;;;;77.60;52.92;;;;;;;-0.65;100.00;103561.03;5052581;28;20021;-75
2023/01/25 00:36:31;;;;;;;78.15;53.05;;;;;;;-0.62;100.00;103556.13;5052595;28;20025;-73
2023/01/25 00:38:57;;;;;;;77.90;53.43;;;;;;;-0.64;100.00;103552.44;5048806;28;20033;-73
2023/01/25 00:41:23;;;;;;;82.47;55.08;;;;;;;-0.65;100.00;103551.53;5052888;28;20359;-73
2023/01/25 00:43:48;;;;;;;84.32;56.00;;;;;;;-0.66;100.00;103551.41;5052436;28;20119;-73
2023/01/25 00:46:16;;;;;;;83.60;54.90;;;;;;;-0.66;100.00;103549.69;5052478;28;20103;-73
2023/01/25 00:48:42;;;;;;;78.45;53.88;;;;;;;-0.67;100.00;103542.69;5052457;28;20029;-73
2023/01/25 00:51:07;;;;;;;82.97;55.10;;;;;;;-0.67;100.00;103547.91;5052398;28;20037;-74
2023/01/25 00:53:33;;;;;;;84.75;56.17;;;;;;;-0.65;100.00;103550.63;5052322;28;20495;-73
2023/01/25 00:55:58;;;;;;;81.82;55.13;;;;;;;-0.71;100.00;103546.69;5052375;28;20467;-73
2023/01/25 00:58:24;;;;;;;83.38;54.90;;;;;;;-0.66;100.00;103543.59;5052345;28;20116;-73
2023/01/25 01:00:52;;;;;;;83.20;55.58;;;;;;;-0.71;100.00;103541.47;5052185;28;20025;-73
2023/01/25 01:03:17;;;;;;;82.65;55.35;;;;;;;-0.63;100.00;103539.59;5052363;28;20028;-73
2023/01/25 01:05:42;;;;;;;83.18;54.55;;;;;;;-0.57;100.00;103536.66;5052267;28;20113;-73
2023/01/25 01:08:08;;;;;;;86.43;56.08;;;;;;;-0.63;100.00;103529.19;5052099;28;20037;-73
2023/01/25 01:10:33;;;;;;;85.72;55.70;;;;;;;-0.62;100.00;103532.72;5052476;28;20025;-73
2023/01/25 01:12:58;;;;;;;87.05;56.00;;;;;;;-0.61;100.00;103527.66;5034388;28;20040;-73
2023/01/25 01:15:24;;;;;;;84.13;55.78;;;;;;;-0.63;100.00;103534.38;5048061;28;20059;-74
2023/01/25 01:17:49;;;;;;;90.68;58.92;;;;;;;-0.62;100.00;103525.84;5052275;28;20092;-73
2023/01/25 01:20:14;;;;;;;85.68;56.45;;;;;;;-0.63;100.00;103534.38;5052079;28;20026;-73
2023/01/25 01:22:40;;;;;;;83.78;55.67;;;;;;;-0.64;100.00;103534.25;5052316;28;20031;-75
2023/01/25 01:25:06;;;;;;;90.53;58.70;;;;;;;-0.66;100.00;103535.81;5051768;28;20491;-73
2023/01/25 01:27:31;;;;;;;89.15;56.47;;;;;;;-0.72;100.00;103533.53;5052040;28;20061;-74
2023/01/25 01:29:56;;;;;;;89.63;57.33;;;;;;;-0.68;100.00;103530.47;5051995;28;20067;-73
2023/01/25 01:32:22;;;;;;;89.10;57.20;;;;;;;-0.68;100.00;103530.47;5052260;28;20029;-73
2023/01/25 01:34:47;;;;;;;88.50;56.15;;;;;;;-0.71;100.00;103531.09;5051974;28;20025;-74
2023/01/25 01:37:12;;;;;;;86.85;56.38;;;;;;;-0.74;100.00;103529.91;5052173;28;20490;-73
2023/01/25 01:39:38;;;;;;;91.88;58.80;;;;;;;-0.74;100.00;103527.31;5051884;28;20025;-73
2023/01/25 01:42:03;;;;;;;89.72;57.15;;;;;;;-0.72;100.00;103534.44;5051890;28;20025;-72
2023/01/25 01:44:48;;;;;;;93.10;58.35;;;;;;;-0.69;100.00;103532.94;5052353;28;20036;-73
2023/01/25 01:47:21;;;;;;;90.68;57.80;;;;;;;-0.73;100.00;103531.72;5050632;28;20459;-73
2023/01/25 01:49:53;;;;;;;88.97;57.25;;;;;;;-0.72;100.00;103546.53;5051990;28;20028;-73
2023/01/25 01:52:23;;;;;;;91.60;57.35;;;;;;;-0.68;100.00;103542.53;5055856;28;20025;-73
2023/01/25 01:54:54;;;;;;;90.25;57.08;;;;;;;-0.69;100.00;103533.81;5055520;28;20025;-73
2023/01/25 01:57:36;;;;;;;89.32;57.35;;;;;;;-0.63;100.00;103537.00;5055721;28;20562;-73
2023/01/25 02:00:08;;;;;;;89.10;57.70;;;;;;;-0.66;100.00;103533.22;5052658;28;20025;-73
2023/01/25 02:02:34;;;;;;;92.45;58.10;;;;;;;-0.68;100.00;103534.72;5055127;28;20437;-74
2023/01/25 02:05:04;;;;;;;89.45;57.20;;;;;;;-0.68;100.00;103535.66;5055279;28;20025;-74
2023/01/25 02:07:35;;;;;;;89.93;57.55;;;;;;;-0.70;100.00;103539.78;5055442;28;20029;-74
2023/01/25 02:10:02;;;;;;;94.93;59.38;;;;;;;-0.66;100.00;103528.00;5055145;28;20456;-73
2023/01/25 02:12:28;;;;;;;88.72;55.63;;;;;;;-0.66;100.00;103530.59;5055119;28;20059;-73
2023/01/25 02:14:54;;;;;;;92.95;58.65;;;;;;;-0.72;100.00;103534.44;5055344;28;20025;-73
2023/01/25 02:17:25;;;;;;;93.70;58.40;;;;;;;-0.73;100.00;103524.84;5055055;28;20037;-73
2023/01/25 02:20:07;;;;;;;91.88;57.65;;;;;;;-0.73;100.00;103532.66;5055043;28;20021;-74
2023/01/25 02:22:44;;;;;;;89.97;57.42;;;;;;;-0.75;100.00;103528.06;5052080;28;20025;-75
2023/01/25 02:25:12;;;;;;;95.55;59.33;;;;;;;-0.77;100.00;103524.41;5054666;28;20072;-75
2023/01/25 02:27:42;;;;;;;93.55;58.35;;;;;;;-0.76;100.00;103519.38;5055182;28;20025;-73
2023/01/25 02:30:08;;;;;;;91.88;57.47;;;;;;;-0.75;100.00;103523.78;5054685;28;20059;-73
2023/01/25 02:32:33;;;;;;;94.78;58.67;;;;;;;-0.71;100.00;103510.31;5054740;28;20033;-75
2023/01/25 02:34:59;;;;;;;92.75;57.47;;;;;;;-0.75;100.00;103512.47;5054955;28;20377;-73
2023/01/25 02:37:25;;;;;;;100.40;59.20;;;;;;;-0.79;100.00;103510.34;5050713;28;20037;-73
2023/01/25 02:39:51;;;;;;;97.25;59.83;;;;;;;-0.81;100.00;103510.22;5054606;28;20384;-73
2023/01/25 02:42:16;;;;;;;102.50;61.47;;;;;;;-0.77;100.00;103503.59;5054857;28;20048;-73
2023/01/25 02:44:42;;;;;;;96.35;60.00;;;;;;;-0.81;100.00;103502.44;5054556;28;20021;-73
2023/01/25 02:47:08;;;;;;;98.90;60.20;;;;;;;-0.85;100.00;103505.50;5054530;28;20561;-73
2023/01/25 02:49:36;;;;;;;95.15;58.22;;;;;;;-0.85;100.00;103492.53;5054676;28;20091;-73
2023/01/25 02:52:03;;;;;;;96.85;58.90;;;;;;;-0.83;100.00;103497.84;5054470;28;20036;-74
2023/01/25 02:54:29;;;;;;;97.70;60.28;;;;;;;-0.80;100.00;103498.13;5054392;28;20033;-73
2023/01/25 02:56:54;;;;;;;95.65;59.65;;;;;;;-0.80;100.00;103498.13;5036651;28;20386;-73
2023/01/25 02:59:20;;;;;;;97.90;58.80;;;;;;;-0.80;100.00;103501.66;5054250;28;20032;-73
2023/01/25 03:01:46;;;;;;;98.50;60.45;;;;;;;-0.76;100.00;103496.00;5054128;28;20480;-73
2023/01/25 03:04:11;;;;;;;96.30;59.17;;;;;;;-0.77;100.00;103496.75;5054478;28;20036;-73
2023/01/25 03:06:38;;;;;;;98.50;60.38;;;;;;;-0.79;100.00;103494.78;5054273;28;20583;-73
2023/01/25 03:09:05;;;;;;;98.97;59.72;;;;;;;-0.81;100.00;103491.13;5053988;28;20037;-73
2023/01/25 03:11:30;;;;;;;98.60;59.92;;;;;;;-0.81;100.00;103492.03;5054496;28;20411;-74
2023/01/25 03:13:56;;;;;;;100.63;61.78;;;;;;;-0.85;100.00;103494.22;5054038;28;20031;-73
2023/01/25 03:16:21;;;;;;;99.45;59.20;;;;;;;-0.91;100.00;103490.25;5054197;28;20029;-73
2023/01/25 03:18:46;;;;;;;103.35;60.67;;;;;;;-0.92;100.00;103484.91;5053900;28;20025;-73
2023/01/25 03:21:15;;;;;;;103.97;60.65;;;;;;;-0.86;100.00;103482.88;5053918;28;20115;-73
2023/01/25 03:23:42;;;;;;;103.15;61.33;;;;;;;-0.90;100.00;103478.22;5054084;28;20036;-73
2023/01/25 03:26:19;;;;;;;100.63;59.63;;;;;;;-0.81;100.00;103480.75;5053688;28;20049;-73
2023/01/25 03:28:45;;;;;;;100.43;59.03;;;;;;;-0.87;100.00;103475.88;5053647;28;20071;-73
2023/01/25 03:31:12;;;;;;;103.38;61.20;;;;;;;-0.85;100.00;103470.84;5053697;28;20387;-73
2023/01/25 03:33:38;;;;;;;104.20;61.65;;;;;;;-0.84;100.00;103459.69;5053868;28;20029;-73
2023/01/25 03:36:04;;;;;;;102.00;60.17;;;;;;;-0.88;100.00;103461.06;5035812;28;20086;-75
2023/01/25 03:38:30;;;;;;;104.80;60.53;;;;;;;-0.81;100.00;103447.88;5053546;28;20021;-74
2023/01/25 03:40:56;;;;;;;101.57;61.28;;;;;;;-0.85;100.00;103448.34;5049732;28;20033;-73
2023/01/25 03:43:22;;;;;;;101.32;60.65;;;;;;;-0.88;100.00;103450.69;5053361;28;20032;-73
2023/01/25 03:45:58;;;;;;;101.20;60.28;;;;;;;-0.91;100.00;103453.00;5053451;28;20086;-72
2023/01/25 03:48:25;;;;;;;104.40;60.70;;;;;;;-0.87;100.00;103455.09;5053483;28;20380;-73
2023/01/25 03:50:52;;;;;;;102.20;61.30;;;;;;;-0.95;100.00;103456.06;5053331;28;20059;-73
2023/01/25 03:53:31;;;;;;;103.93;61.78;;;;;;;-0.93;100.00;103462.34;5053244;28;20025;-73
2023/01/25 03:56:08;;;;;;;102.43;60.70;;;;;;;-0.94;100.00;103452.72;5049646;28;20044;-74
2023/01/25 03:58:34;;;;;;;103.97;61.83;;;;;;;-0.96;100.00;103454.22;5050120;28;20021;-73
2023/01/25 04:01:02;;;;;;;104.80;61.08;;;;;;;-0.94;100.00;103457.91;5053339;28;20101;-73
2023/01/25 04:03:28;;;;;;;106.75;62.08;;;;;;;-0.93;100.00;103460.66;5049383;28;20024;-73
2023/01/25 04:05:54;;;;;;;105.25;61.42;;;;;;;-0.89;100.00;103460.16;5053041;28;20380;-73
2023/01/25 04:08:20;;;;;;;108.15;62.80;;;;;;;-0.94;100.00;103457.91;5053064;28;20166;-73
2023/01/25 04:10:56;;;;;;;106.20;63.15;;;;;;;-0.98;100.00;103448.00;5052998;28;20499;-73
2023/01/25 04:13:23;;;;;;;105.00;61.38;;;;;;;-1.02;100.00;103448.47;5052399;28;20025;-73
2023/01/25 04:15:49;;;;;;;106.53;63.28;;;;;;;-1.00;100.00;103453.06;5053153;28;20221;-73
2023/01/25 04:18:14;;;;;;;103.20;60.83;;;;;;;-1.03;100.00;103441.44;5052838;28;20068;-73
2023/01/25 04:20:40;;;;;;;103.82;61.65;;;;;;;-1.02;100.00;103443.28;5052792;28;20091;-73
2023/01/25 04:23:06;;;;;;;104.88;62.08;;;;;;;-1.09;100.00;103442.72;5052885;28;20036;-74
2023/01/25 04:25:31;;;;;;;107.40;62.17;;;;;;;-1.11;100.00;103444.25;5052580;28;20439;-73
2023/01/25 04:27:57;;;;;;;105.90;62.70;;;;;;;-1.17;100.00;103438.50;5052798;28;20025;-73
2023/01/25 04:30:22;;;;;;;103.80;60.72;;;;;;;-1.14;100.00;103443.97;5052958;28;20515;-73
2023/01/25 04:32:48;;;;;;;103.97;60.78;;;;;;;-1.16;100.00;103435.13;5052577;28;20127;-73
2023/01/25 04:35:13;;;;;;;106.07;61.83;;;;;;;-1.17;100.00;103437.59;5052545;28;20472;-73
2023/01/25 04:37:39;;;;;;;104.32;60.97;;;;;;;-1.16;100.00;103434.22;5052643;28;20036;-73
2023/01/25 04:40:05;;;;;;;103.68;61.78;;;;;;;-1.17;100.00;103442.78;5052576;28;20033;-73
2023/01/25 04:42:30;;;;;;;103.45;59.33;;;;;;;-1.16;100.00;103429.94;5052769;28;20036;-73
2023/01/25 04:44:55;;;;;;;103.53;60.20;;;;;;;-1.12;100.00;103432.06;5052713;28;20028;-73
2023/01/25 04:47:21;;;;;;;100.70;59.97;;;;;;;-1.13;100.00;103429.31;5052402;28;20037;-73
2023/01/25 04:49:46;;;;;;;106.95;61.03;;;;;;;-1.09;100.00;103436.63;5034599;28;20033;-73
2023/01/25 04:52:11;;;;;;;98.57;58.30;;;;;;;-1.08;100.00;103428.03;5052386;28;20036;-73
2023/01/25 04:54:37;;;;;;;98.22;57.88;;;;;;;-1.10;100.00;103434.78;5052283;28;20032;-73
2023/01/25 04:57:02;;;;;;;104.82;61.17;;;;;;;-1.06;100.00;103432.63;5052483;28;20029;-73
2023/01/25 04:59:28;;;;;;;96.70;58.15;;;;;;;-1.14;100.00;103425.78;5052314;28;20029;-73
2023/01/25 05:01:53;;;;;;;95.93;57.22;;;;;;;-1.21;100.00;103420.78;5052272;28;20112;-73
2023/01/25 05:04:19;;;;;;;95.22;56.38;;;;;;;-1.29;100.00;103422.69;5052471;28;20474;-73
2023/01/25 05:06:44;;;;;;;100.25;58.33;;;;;;;-1.33;100.00;103419.66;5052275;28;20021;-73
2023/01/25 05:09:09;;;;;;;95.60;56.40;;;;;;;-1.46;100.00;103408.13;5052098;28;20426;-75
2023/01/25 05:11:35;;;;;;;95.28;56.50;;;;;;;-1.47;100.00;103410.56;5052403;28;20400;-73
2023/01/25 05:14:00;;;;;;;97.90;57.47;;;;;;;-1.45;100.00;103406.44;5052421;28;20380;-74
2023/01/25 05:16:25;;;;;;;98.95;56.65;;;;;;;-1.37;100.00;103412.34;5052302;28;20032;-73
2023/01/25 05:18:51;;;;;;;96.28;57.67;;;;;;;-1.37;100.00;103409.75;5052170;28;20032;-74
2023/01/25 05:24:00;;;;;;;99.05;57.72;;;;;;;-1.49;100.00;103407.81;5048787;28;20146;-74
2023/01/25 05:29:09;;;;;;;97.10;56.70;;;;;;;-1.53;100.00;103404.81;5053966;28;20071;-75
2023/01/25 05:31:35;;;;;;;96.45;57.13;;;;;;;-1.51;100.00;103404.19;5055983;28;20478;-74
2023/01/25 05:34:00;;;;;;;95.13;56.05;;;;;;;-1.53;100.00;103400.53;5055973;28;20021;-75
2023/01/25 05:36:26;;;;;;;98.13;56.35;;;;;;;-1.44;100.00;103404.00;5056065;28;20037;-73
2023/01/25 05:38:51;;;;;;;98.80;57.67;;;;;;;-1.39;100.00;103399.22;5055803;28;20554;-74
2023/01/25 05:41:17;;;;;;;97.30;57.20;;;;;;;-1.36;100.00;103399.50;5055775;28;20104;-73
2023/01/25 05:43:42;;;;;;;99.97;58.28;;;;;;;-1.28;100.00;103400.22;5055965;28;20033;-83
2023/01/25 05:46:08;;;;;;;100.28;58.10;;;;;;;-1.27;100.00;103399.47;5055707;28;20069;-81
2023/01/25 05:48:33;;;;;;;96.10;57.03;;;;;;;-1.28;100.00;103401.16;5055551;28;20021;-78
2023/01/25 05:50:59;;;;;;;96.32;56.85;;;;;;;-1.29;100.00;103395.81;5055902;28;20037;-74
2023/01/25 05:53:27;;;;;;;94.43;56.17;;;;;;;-1.30;100.00;103400.09;5055633;28;20029;-82
2023/01/25 05:55:53;;;;;;;97.90;56.95;;;;;;;-1.24;100.00;103395.47;5055569;28;20397;-74
2023/01/25 05:58:18;;;;;;;94.72;55.63;;;;;;;-1.20;100.00;103395.75;5055649;28;20033;-78
2023/01/25 06:00:44;;;;;;;93.50;56.10;;;;;;;-1.24;100.00;103395.47;5055373;28;20029;-74
2023/01/25 06:03:09;;;;;;;97.82;57.08;;;;;;;-1.21;100.00;103389.63;5055562;28;20079;-74
2023/01/25 06:05:34;;;;;;;94.55;56.78;;;;;;;-1.21;100.00;103389.63;5055329;28;20025;-82
2023/01/25 06:08:00;;;;;;;95.43;55.95;;;;;;;-1.18;100.00;103384.75;5055330;28;20033;-74
2023/01/25 06:10:25;;;;;;;94.50;56.42;;;;;;;-1.22;100.00;103390.44;5055515;28;20044;-82
2023/01/25 06:12:56;;;;;;;97.68;56.03;;;;;;;-1.21;100.00;103401.72;5055260;28;20424;-74
2023/01/25 06:15:21;;;;;;;92.40;54.53;;;;;;;-1.19;100.00;103398.50;5037303;28;20384;-83
2023/01/25 06:17:47;;;;;;;92.63;55.30;;;;;;;-1.24;100.00;103395.47;5055329;28;20025;-82
2023/01/25 06:20:12;;;;;;;91.70;54.88;;;;;;;-1.24;100.00;103400.69;5055021;28;20044;-83
2023/01/25 06:22:38;;;;;;;87.72;52.95;;;;;;;-1.26;100.00;103393.50;5052720;28;20025;-74
2023/01/25 06:25:04;;;;;;;94.50;55.08;;;;;;;-1.27;100.00;103391.69;5035173;28;20033;-76
2023/01/25 06:27:29;;;;;;;93.25;55.45;;;;;;;-1.26;100.00;103390.91;5055390;28;20041;-76
2023/01/25 06:29:54;;;;;;;87.28;53.70;;;;;;;-1.31;100.00;103393.09;5055092;28;20487;-76
2023/01/25 06:32:20;;;;;;;89.53;53.72;;;;;;;-1.32;100.00;103399.03;5057370;28;20037;-75
2023/01/25 06:34:45;;;;;;;90.95;54.80;;;;;;;-1.27;100.00;103394.28;5059432;28;20115;-77
2023/01/25 06:37:10;;;;;;;93.30;55.55;;;;;;;-1.26;100.00;103393.50;5053583;28;20219;-75
2023/01/25 06:39:36;;;;;;;90.38;54.75;;;;;;;-1.32;100.00;103390.34;5045074;28;20025;-76
2023/01/25 06:42:01;;;;;;;93.93;55.95;;;;;;;-1.27;100.00;103386.47;5036056;28;20466;-77
2023/01/25 06:44:28;;;;;;;92.75;54.70;;;;;;;-1.26;100.00;103390.91;5054096;28;20452;-77
2023/01/25 06:46:54;;;;;;;92.55;54.35;;;;;;;-1.25;100.00;103395.34;5054238;28;20032;-77
2023/01/25 06:49:19;;;;;;;89.25;53.13;;;;;;;-1.27;100.00;103387.41;5053661;28;20033;-75
2023/01/25 06:51:45;;;;;;;90.43;54.78;;;;;;;-1.39;100.00;103388.84;5050982;28;20116;-76
2023/01/25 06:54:10;;;;;;;87.97;53.75;;;;;;;-1.51;100.00;103393.81;5057209;28;20052;-74
2023/01/25 06:56:36;;;;;;;89.97;53.95;;;;;;;-1.55;100.00;103385.59;5056315;28;20084;-75
2023/01/25 06:59:01;;;;;;;90.82;54.50;;;;;;;-1.61;100.00;103385.94;5057482;28;20032;-77
2023/01/25 07:01:29;;;;;;;93.55;54.78;;;;;;;-1.56;100.00;103389.84;5054416;28;20086;-77
2023/01/25 07:03:56;;;;;;;91.15;54.40;;;;;;;-1.59;100.00;103381.78;5050301;28;20029;-74
2023/01/25 07:06:23;;;;;;;91.78;54.78;;;;;;;-1.51;100.00;103386.03;5051070;28;20029;-77
2023/01/25 07:08:49;;;;;;;89.68;53.90;;;;;;;-1.53;100.00;103379.78;5057135;28;20033;-75
2023/01/25 07:11:17;;;;;;;90.68;53.90;;;;;;;-1.49;100.00;103380.97;5054855;28;20075;-78
2023/01/25 07:13:44;;;;;;;89.15;52.50;;;;;;;-1.52;100.00;103384.19;5055235;28;20029;-77
2023/01/25 07:16:15;;;;;;;91.57;54.13;;;;;;;-1.54;100.00;103384.81;5053244;28;20029;-77
2023/01/25 07:18:41;;;;;;;93.07;54.88;;;;;;;-1.57;100.00;103393.25;5052906;28;20033;-76
2023/01/25 07:21:09;;;;;;;93.55;54.80;;;;;;;-1.53;100.00;103387.56;5056757;28;20048;-78
2023/01/25 07:23:40;;;;;;;91.85;53.53;;;;;;;-1.48;100.00;103391.50;5053464;28;20099;-75
2023/01/25 07:26:13;;;;;;;92.35;53.63;;;;;;;-1.43;100.00;103385.06;5052922;28;20053;-76
2023/01/25 07:28:39;;;;;;;92.47;54.42;;;;;;;-1.36;100.00;103388.22;5052715;28;20052;-76
2023/01/25 07:31:06;;;;;;;91.65;54.15;;;;;;;-1.49;100.00;103383.56;5052736;28;20044;-76
2023/01/25 07:33:32;;;;;;;91.00;52.78;;;;;;;-1.53;100.00;103384.97;5053283;28;20029;-75
2023/01/25 07:36:02;;;;;;;92.03;53.28;;;;;;;-1.51;100.00;103375.66;5053305;28;20093;-75
2023/01/25 07:38:27;;;;;;;89.07;52.67;;;;;;;-1.49;100.00;103370.59;5051289;28;20364;-75
2023/01/25 07:40:53;;;;;;;89.53;52.85;;;;;;;-1.54;100.00;103377.97;5052640;28;20063;-79
2023/01/25 07:43:19;;;;;;;91.53;52.80;;;;;;;-1.58;100.00;103374.16;5053062;28;20032;-75
2023/01/25 07:45:47;;;;;;;91.60;54.20;;;;;;;-1.62;100.00;103374.63;5039321;28;20051;-76
2023/01/25 07:48:13;;;;;;;92.80;54.15;;;;;;;-1.67;100.00;103362.00;5055680;28;20049;-77
2023/01/25 07:50:40;;;;;;;89.72;53.78;;;;;;;-1.64;100.00;103370.06;5053997;28;20031;-76
2023/01/25 07:53:08;;;;;;;91.32;53.75;;;;;;;-1.68;100.00;103362.78;5055151;28;20265;-75
2023/01/25 07:55:34;;;;;;;89.55;53.22;;;;;;;-1.76;100.00;103360.38;5056337;28;20044;-78
2023/01/25 07:57:59;;;;;;;94.45;53.42;;;;;;;-1.74;100.00;103368.28;5052461;28;20484;-79
2023/01/25 08:00:25;;;;;;;94.95;54.45;;;;;;;-1.77;100.00;103368.91;5052259;28;20476;-75
2023/01/25 08:02:51;;;;;;;93.93;54.88;;;;;;;-1.73;100.00;103369.19;5052429;28;20017;-77
2023/01/25 08:05:17;;;;;;;92.22;53.78;;;;;;;-1.71;100.00;103372.84;5054206;28;20391;-81
2023/01/25 08:07:42;;;;;;;93.35;53.42;;;;;;;-1.74;100.00;103372.56;5053896;28;20033;-75
2023/01/25 08:10:08;;;;;;;90.97;52.83;;;;;;;-1.73;100.00;103366.59;5054202;28;20091;-76
2023/01/25 08:12:34;;;;;;;90.57;53.10;;;;;;;-1.78;100.00;103366.16;5059814;28;20056;-78
2023/01/25 08:15:00;;;;;;;90.82;53.58;;;;;;;-1.80;100.00;103357.34;5055214;28;20056;-81
2023/01/25 08:17:31;;;;;;;97.00;54.03;;;;;;;-1.69;100.00;103359.28;5056275;28;20045;-81
2023/01/25 08:19:57;;;;;;;91.70;53.35;;;;;;;-1.77;100.00;103355.94;5052738;28;20036;-76
2023/01/25 08:22:23;;;;;;;91.57;52.38;;;;;;;-1.74;100.00;103363.09;5058607;28;20131;-80
2023/01/25 08:24:49;;;;;;;92.10;53.17;;;;;;;-1.77;100.00;103366.31;5052528;28;20040;-74
2023/01/25 08:27:15;;;;;;;91.70;52.03;;;;;;;-1.80;100.00;103358.25;5051898;28;21363;-80
2023/01/25 08:29:40;;;;;;;90.05;51.75;;;;;;;-1.69;100.00;103360.94;5051394;28;20024;-76
2023/01/25 08:32:06;;;;;;;90.50;52.63;;;;;;;-1.80;100.00;103350.47;5051955;28;20388;-75
2023/01/25 08:34:32;;;;;;;89.63;52.15;;;;;;;-1.86;100.00;103352.47;5052682;28;20538;-83
2023/01/25 08:36:58;;;;;;;92.82;52.55;;;;;;;-1.87;100.00;103348.06;5056303;28;20037;-76
2023/01/25 08:39:23;;;;;;;89.15;52.28;;;;;;;-1.85;100.00;103350.78;5033908;28;20022;-84
2023/01/25 08:41:49;;;;;;;92.70;53.08;;;;;;;-1.81;100.00;103351.22;5053942;28;20507;-82
2023/01/25 08:44:14;;;;;;;87.22;51.13;;;;;;;-1.79;100.00;103352.28;5052853;28;20396;-83
2023/01/25 08:46:39;;;;;;;91.50;52.47;;;;;;;-1.63;100.00;103353.72;5052726;28;20041;-83
2023/01/25 08:49:06;;;;;;;92.47;52.53;;;;;;;-1.62;100.00;103348.66;5053816;28;20075;-82
2023/01/25 08:51:32;;;;;;;88.85;52.40;;;;;;;-1.58;100.00;103355.97;5051577;28;20037;-75
2023/01/25 08:54:05;;;;;;;89.95;51.47;;;;;;;-1.57;100.00;103362.09;5051394;28;20029;-75
2023/01/25 08:56:30;;;;;;;92.10;52.30;;;;;;;-1.56;100.00;103358.72;5049156;28;20478;-83
2023/01/25 08:58:56;;;;;;;87.15;50.70;;;;;;;-1.47;100.00;103348.28;5051602;28;20084;-78
2023/01/25 09:01:21;;;;;;;87.43;50.67;;;;;;;-1.45;100.00;103347.66;5052846;28;20487;-83
2023/01/25 09:03:49;;;;;;;82.20;49.22;;;;;;;-1.39;100.00;103349.03;5053855;28;20029;-80
2023/01/25 09:06:15;;;;;;;81.13;49.15;;;;;;;-1.42;100.00;103342.75;5052794;28;20033;-76
2023/01/25 09:08:41;;;;;;;84.50;51.03;;;;;;;-1.39;100.00;103339.53;5051512;28;20033;-76
2023/01/25 09:11:12;;;;;;;81.82;49.22;;;;;;;-1.36;100.00;103338.91;5051318;28;20463;-74
2023/01/25 09:13:38;;;;;;;85.78;50.67;;;;;;;-1.34;100.00;103334.78;5051037;28;20035;-75
2023/01/25 09:16:07;;;;;;;78.57;48.90;;;;;;;-1.38;100.00;103332.66;5051791;28;20087;-75
2023/01/25 09:18:34;;;;;;;88.32;52.08;;;;;;;-1.37;100.00;103337.09;5052746;28;20029;-75
2023/01/25 09:21:05;;;;;;;83.38;50.10;;;;;;;-1.34;100.00;103333.09;5051429;28;20028;-76
2023/01/25 09:23:31;;;;;;;86.20;50.88;;;;;;;-1.51;100.00;103328.03;5054579;28;20033;-75
2023/01/25 09:25:57;;;;;;;84.78;49.72;;;;;;;-1.62;100.00;103333.09;5054880;28;20048;-75
2023/01/25 09:28:24;;;;;;;86.05;49.88;;;;;;;-1.71;100.00;103328.75;5055628;28;20090;-75
2023/01/25 09:31:01;;;;;;;84.13;50.75;;;;;;;-1.70;100.00;103327.97;5051119;28;20029;-76
2023/01/25 09:33:28;;;;;;;87.72;50.30;;;;;;;-1.69;100.00;103332.41;5053815;28;20980;-74
2023/01/25 09:35:54;;;;;;;84.50;50.63;;;;;;;-1.71;100.00;103331.34;5051363;28;20029;-75
2023/01/25 09:38:20;;;;;;;86.32;50.58;;;;;;;-1.73;100.00;103327.69;5052202;28;20095;-74
2023/01/25 09:41:03;;;;;;;85.10;50.75;;;;;;;-1.77;100.00;103329.09;5050124;28;20048;-74
2023/01/25 09:43:28;;;;;;;88.95;51.63;;;;;;;-1.68;100.00;103324.75;5052259;28;20025;-76
2023/01/25 09:45:53;;;;;;;86.68;50.25;;;;;;;-1.58;100.00;103332.63;5052016;28;20387;-74
2023/01/25 09:48:37;;;;;;;86.30;50.60;;;;;;;-1.49;100.00;103324.78;5051313;28;20116;-74
2023/01/25 09:51:25;;;;;;;83.93;49.72;;;;;;;-1.36;100.00;103318.16;5052369;28;20426;-76
2023/01/25 09:53:53;;;;;;;86.68;51.15;;;;;;;-1.33;100.00;103321.03;5051710;28;20029;-76
2023/01/25 09:56:35;;;;;;;87.60;50.67;;;;;;;-1.26;100.00;103323.41;5034938;28;20021;-76
2023/01/25 09:59:10;;;;;;;86.47;51.35;;;;;;;-1.14;100.00;103321.94;5047931;28;20036;-76
2023/01/25 10:01:50;;;;;;;88.05;50.22;;;;;;;-1.13;100.00;103318.56;5049438;28;20033;-76
2023/01/25 10:04:20;;;;;;;87.53;51.00;;;;;;;-1.22;100.00;103322.94;5053866;28;20488;-76
2023/01/25 10:06:50;;;;;;;89.93;51.53;;;;;;;-1.21;100.00;103331.63;5050901;28;20021;-76
2023/01/25 10:09:46;;;;;;;88.10;51.45;;;;;;;-1.07;100.00;103326.03;5051623;28;20045;-76
2023/01/25 10:12:27;;;;;;;88.32;50.78;;;;;;;-1.10;100.00;103321.44;5053874;28;20029;-76
2023/01/25 10:14:53;;;;;;;91.95;52.58;;;;;;;-1.22;100.00;103315.16;5054359;28;20065;-77
2023/01/25 10:17:38;;;;;;;90.97;51.63;;;;;;;-1.12;100.00;103304.84;5057569;28;20032;-77
2023/01/25 10:20:32;;;;;;;96.38;53.17;;;;;;;-1.02;100.00;103313.44;5051570;28;20116;-76
2023/01/25 10:23:35;;;;;;;93.32;53.08;;;;;;;-0.97;100.00;103301.81;5054244;28;20043;-76
2023/01/25 10:26:18;;;;;;;91.13;52.83;;;;;;;-0.94;100.00;103304.69;5056528;28;20053;-76
2023/01/25 10:28:58;;;;;;;88.65;50.60;;;;;;;-1.00;100.00;103301.53;5054273;28;20045;-76
2023/01/25 10:31:43;;;;;;;89.03;51.72;;;;;;;-1.17;100.00;103302.59;5054432;28;20020;-77
2023/01/25 10:34:19;;;;;;;91.20;51.97;;;;;;;-1.27;100.00;103300.81;5055926;28;20032;-76
2023/01/25 10:36:49;;;;;;;91.18;51.42;;;;;;;-1.31;100.00;103293.53;5054719;28;20068;-77
2023/01/25 10:39:16;;;;;;;93.32;52.83;;;;;;;-1.35;100.00;103288.84;5057320;28;20067;-76
2023/01/25 10:41:47;;;;;;;90.45;52.03;;;;;;;-1.43;100.00;103283.88;5054631;28;20029;-77
2023/01/25 10:44:23;;;;;;;89.07;50.63;;;;;;;-1.45;100.00;103280.19;5054436;28;20085;-77
2023/01/25 10:46:59;;;;;;;91.82;51.45;;;;;;;-1.38;100.00;103271.31;5053754;28;20387;-76
2023/01/25 10:49:51;;;;;;;90.00;50.97;;;;;;;-1.38;100.00;103257.41;5054794;28;20025;-76
2023/01/25 10:52:25;;;;;;;85.65;49.58;;;;;;;-1.29;100.00;103247.88;5049372;28;20075;-75
2023/01/25 10:55:15;;;;;;;91.53;51.08;;;;;;;-1.17;100.00;103242.88;5053610;28;20025;-76
2023/01/25 10:57:49;;;;;;;90.85;51.50;;;;;;;-1.11;100.00;103246.03;5053447;28;20054;-76
2023/01/25 11:00:24;;;;;;;88.43;50.78;;;;;;;-1.04;100.00;103240.59;5051249;28;20116;-76
2023/01/25 11:02:49;;;;;;;91.75;52.63;;;;;;;-1.02;100.00;103235.56;5051901;28;20033;-76
2023/01/25 11:05:18;;;;;;;92.13;52.78;;;;;;;-1.04;100.00;103231.91;5057129;28;20033;-77
2023/01/25 11:07:47;;;;;;;90.45;51.63;;;;;;;-1.08;100.00;103225.53;5051292;28;20035;-78
2023/01/25 11:10:32;;;;;;;87.22;50.70;;;;;;;-0.99;100.00;103220.25;5053096;28;20064;-77